x

Montauk Point -23 Nm Ssw Of Montauk Point, Ny (44017) Wave Buoy

9:50am - Wed 7th Dec 2016 All times are EST. -5 hours from GMT.

  • Sig Wave height 5.9ft
  • Swell Direction
  • Peak Period 7s
  • Average Period 5s
  • Wind
    9mph, 11mph gusts
  • Sea Temp 54°f
  • Air Temp 46°f
  • Sea Pressure 1015.5mb
  • Montauk Point -23 Nm Ssw Of Montauk Point, Ny
  • Montauk Point -23 Nm Ssw Of Montauk Point, Ny

More Historic Weather Station data

Upgrade to MSW Pro to gain access to the past 30 days of data for over 8000 Wavebouys and Weather Stations around the globe.

Join Pro

Comparision Forecast

View Surf forecast
   
Wed 12/07 9:50am 6ft 7s 5s 9 11 mph 1015.5mb 54f 46f
8:50am 6ft 7s 6s 16 18 mph 1014.1mb 54f 45f
7:50am 6.5ft 6s 5s 13 16 mph 1013.9mb 54f 45f
6:50am 7ft 6s  -  18 20 mph 1013.1mb 54f 45f
5:50am 7ft 7s 5s 22 27 mph 1011.4mb 54f 45f
4:50am 7ft 6s 5s 22 27 mph 1011.1mb 54f 45f
3:50am 7ft 6s 5s 27 31 mph 1009.6mb 54f 46f
2:50am 6.5ft 6s 5s 29 34 mph 1009mb 54f 47f
1:50am 5.5ft 6s 5s 29 34 mph 1009.7mb 54f 46f
12:50am 5ft 5s 5s 27 31 mph 1010.3mb 54f 46f
Tue 12/06 11:50pm 4.5ft 5s 4s 27 31 mph 1011.3mb 54f 45f
10:50pm 4ft 5s 4s 20 25 mph 1013.4mb 54f 45f
6:50pm 3.5ft 5s 4s 18 22 mph 1015.2mb 54f 46f
5:50pm 3.5ft 10s 4s 20 25 mph 1014.9mb 54f 46f
4:50pm 3.5ft 4s 4s 20 25 mph 1014.9mb 54f 46f
3:50pm 2.5ft 10s 4s 20 22 mph 1015.9mb 54f 45f
2:50pm 2.5ft 9s 5s 18 22 mph 1016.3mb 54f 45f
11:50am 2.5ft 10s 5s 11 16 mph 1019.1mb 54f 45f
10:50am 3ft 10s 4s 13 16 mph 1020mb 54f 45f
9:50am 3ft 4s 4s 13 18 mph 1021.2mb 54f 45f
8:50am 3.5ft 4s 4s 18 22 mph 1020.5mb 53f 45f
7:50am 3.5ft 4s 4s 20 25 mph 1019.9mb 53f 45f
6:50am 3.5ft 4s 4s 18 22 mph 1019.9mb 53f 45f
5:50am 3.5ft 4s 4s 22 27 mph 1019.7mb 53f 45f
4:50am 3.5ft 4s 4s 22 27 mph 1019.1mb 53f 45f
3:50am 3ft 11s 4s 25 27 mph 1018.8mb 53f 46f
2:50am 3.5ft 5s 4s 22 27 mph 1018.7mb 53f 46f
1:50am 3.5ft 4s 4s 20 25 mph 1019mb 53f 46f
12:50am 3.5ft 11s 4s 20 25 mph 1018.2mb 53f 46f
Mon 12/05 11:50pm 3.5ft 5s 4s 20 25 mph 1017.7mb 53f 47f
10:50pm 3.5ft 10s 4s 20 25 mph 1017.7mb 53f 47f
9:50pm 4ft 4s 4s 20 25 mph 1017.6mb 53f 47f
8:50pm 3.5ft 5s 4s 22 27 mph 1016.7mb 53f 47f
7:50pm 3.5ft 5s 4s 20 25 mph 1016.7mb 54f 48f
6:50pm 3.5ft 5s 4s 18 22 mph 1016.1mb 54f 48f
5:50pm 3.5ft 5s 4s 20 25 mph 1015.5mb 54f 48f
4:50pm 4ft 5s 4s 18 25 mph 1015.3mb 54f 48f
3:50pm 3.5ft 5s 4s 20 25 mph 1014.7mb 54f 47f
2:50pm 3.5ft 5s 4s 16 18 mph 1014.4mb 55f 47f
1:50pm 3.5ft 5s 4s 16 20 mph 1013.7mb 55f 48f
12:50pm 3.5ft 5s 4s 18 22 mph 1013.5mb 55f 48f
11:50am 3ft 4s 4s 25 29 mph 1013.9mb 54f 47f
10:50am 3ft 4s 4s 16 20 mph 1015.1mb 54f 49f
9:50am 2.5ft 4s 4s 18 22 mph 1016mb 54f 47f
8:50am 2.5ft 4s 4s 16 18 mph 1016.4mb 54f 46f
7:50am 2.5ft 3s 4s 16 20 mph 1016.5mb 54f 46f
6:50am 2.5ft 3s 4s 13 20 mph 1016.8mb 55f 45f
5:50am 2ft 8s 4s 16 20 mph 1017.2mb 55f 45f
4:50am 2ft 3s 4s 7 16 mph 1019mb 55f 44f
3:50am 1.6ft 8s 4s 13 18 mph 1019.7mb 55f 45f
2:50am 1.3ft 10s 4s 13 18 mph 1019.4mb 55f 45f
1:50am 1.3ft 8s 5s 11 13 mph 1020.4mb 55f 44f
12:50am 1.3ft 7s 5s 9 13 mph 1020.5mb 55f 44f
Sun 12/04 11:50pm 1.3ft 8s 5s 4 9 mph 1021.3mb 55f 43f
10:50pm 1.3ft 8s 5s 9 13 mph 1021.3mb 55f 43f
9:50pm 1.3ft 8s 5s 7 9 mph 1022.3mb 55f 42f
8:50pm 1.3ft 8s 4s 4 7 mph 1022.7mb 55f 42f
7:50pm 1.3ft 8s 4s 7 9 mph 1023mb 55f 42f
6:50pm 1.3ft 8s 4s 7 11 mph 1023.2mb 55f 42f
5:50pm 1.6ft 8s 4s 9 11 mph 1023mb 55f 42f
4:50pm 1.6ft 8s 4s 9 16 mph 1022.9mb 55f 41f
3:50pm 2ft 3s 4s 11 16 mph 1022.8mb 55f 41f
2:50pm 2ft 3s 4s 11 16 mph 1022.3mb 55f 41f
1:50pm 2ft 3s 4s 13 18 mph 1022.2mb 55f 40f
11:50am 2.5ft 4s 4s 16 20 mph 1022.5mb 55f 39f
10:50am 3ft 4s 4s 18 22 mph 1022.5mb 55f 39f
9:50am 3ft 4s 4s 16 20 mph 1023.3mb 55f 38f
8:50am 3ft 4s 4s 16 20 mph 1022.8mb 55f 38f
7:50am 3.5ft 4s 4s 18 22 mph 1022.7mb 55f 38f
6:50am 3.5ft 4s 4s 20 27 mph 1021.8mb 55f 39f
5:50am 3ft 4s 4s 20 25 mph 1021.7mb 55f 40f
4:50am 3.5ft 4s 4s 22 27 mph 1021.3mb 55f 40f
3:50am 3.5ft 4s 4s 22 27 mph 1021.4mb 55f 40f
2:50am 4ft 4s 4s 22 27 mph 1021.1mb 55f 41f
1:50am 4.5ft 5s 4s 18 27 mph 1021.1mb 55f 42f
12:50am 4ft 4s 4s 22 31 mph 1020.1mb 55f 42f
Sat 12/03 11:50pm 5ft 5s 4s 25 31 mph 1019.7mb 55f 42f
10:50pm 5.5ft 5s 5s 29 36 mph 1019mb 55f 43f
9:50pm 6ft 6s 5s 31 38 mph 1018.1mb 56f 43f
8:50pm 5ft 5s 4s 29 36 mph 1018mb 56f 44f
6:50pm 5ft 6s 4s 27 36 mph 1017.6mb 56f 45f
5:50pm 5ft 6s 4s 25 31 mph 1017mb 56f 46f
4:50pm 5ft 6s 4s 27 34 mph 1016.6mb 56f 46f